Terminal Aerodrome Forecast
Issued by NWS Billings, MT

Home | Current Version | Previous Version | Text Only | Print | Product List | Glossary On
Versions: 1 2 3 4 5 6 7 8 9 10 11 12 13 14 15 16 17 18 19 20 21 22 23 24 25 26 27 28 29 30 31 32 33 34 35 36 37 38 39 40
000
FTUS45 KBYZ 302340
TAFBIL
TAF
KBIL 302340Z 3100/3124 VRB06KT P6SM VCTS SCT060CB BKN090
      TEMPO 3100/3102 26010G18KT -SHRA BKN060
     FM310300 23007KT P6SM VCSH BKN060 OVC120
     FM310900 27009KT P6SM -SHRA FEW030 OVC045
     FM311700 29011KT P6SM SCT070 BKN100=

USA.gov is the U.S. government's official web portal to all federal, state and local government web resources and services.